createdAt,value
2022-11-29T00:00:06.893Z,69.83
2022-11-29T00:03:35.941Z,51.93
2022-11-29T00:06:57.631Z,50.50
2022-11-29T00:10:19.967Z,49.53
2022-11-29T00:13:42.295Z,57.10
2022-11-29T00:17:04.554Z,54.03
2022-11-29T00:20:29.813Z,53.67
2022-11-29T00:23:51.788Z,50.27
2022-11-29T00:27:14.013Z,52.70
2022-11-29T00:30:35.978Z,56.23
2022-11-29T00:33:59.102Z,54.60
2022-11-29T00:37:22.485Z,48.97
2022-11-29T00:40:44.114Z,52.53
2022-11-29T00:44:05.995Z,49.70
2022-11-29T00:47:28.050Z,54.03
2022-11-29T00:50:50.226Z,51.50
2022-11-29T00:54:13.745Z,55.67
2022-11-29T00:57:35.393Z,49.83
2022-11-29T01:00:57.694Z,53.23
2022-11-29T01:04:20.826Z,56.03
2022-11-29T01:07:42.680Z,55.27
2022-11-29T01:11:08.821Z,52.57
2022-11-29T01:14:30.753Z,58.37
2022-11-29T01:17:53.451Z,55.37
2022-11-29T01:21:16.592Z,53.57
2022-11-29T01:24:38.217Z,53.63
2022-11-29T01:28:01.455Z,56.60
2022-11-29T01:31:25.418Z,54.10
2022-11-29T01:34:47.180Z,54.83
2022-11-29T01:38:08.946Z,56.63
2022-11-29T01:41:32.673Z,53.83
2022-11-29T01:45:15.035Z,55.03
2022-11-29T01:48:36.639Z,54.63
2022-11-29T01:52:02.107Z,52.90
2022-11-29T01:55:23.653Z,54.40
2022-11-29T01:58:46.590Z,56.00
2022-11-29T02:02:14.555Z,51.27
2022-11-29T02:05:37.841Z,53.80
2022-11-29T02:08:59.611Z,57.10
2022-11-29T02:12:28.518Z,55.73
2022-11-29T02:16:00.444Z,53.30
2022-11-29T02:19:46.504Z,56.13
2022-11-29T02:23:27.823Z,56.40
2022-11-29T02:27:04.009Z,53.40
2022-11-29T02:30:49.377Z,54.73
2022-11-29T02:34:39.183Z,54.07
2022-11-29T02:38:22.054Z,52.83
2022-11-29T02:41:57.174Z,50.73
2022-11-29T02:45:37.259Z,58.13
2022-11-29T02:49:05.339Z,52.37
2022-11-29T02:52:36.338Z,50.30
2022-11-29T02:56:05.634Z,53.23
2022-11-29T02:59:41.033Z,54.57
2022-11-29T03:03:09.462Z,53.87
2022-11-29T03:06:37.766Z,56.33
2022-11-29T03:10:06.919Z,51.13
2022-11-29T03:13:44.472Z,55.33
2022-11-29T03:17:14.978Z,57.77
2022-11-29T03:20:46.603Z,55.93
2022-11-29T03:24:13.212Z,58.97
2022-11-29T03:27:43.180Z,57.67
2022-11-29T03:31:11.755Z,51.07
2022-11-29T03:34:46.579Z,54.13
2022-11-29T03:38:17.271Z,56.53
2022-11-29T03:41:44.791Z,56.67
2022-11-29T03:45:15.615Z,54.57
2022-11-29T03:48:41.742Z,57.83
2022-11-29T03:52:13.303Z,54.07
2022-11-29T03:55:50.327Z,52.70
2022-11-29T03:59:24.363Z,52.17
2022-11-29T04:03:20.109Z,54.37
2022-11-29T04:06:57.722Z,52.63
2022-11-29T04:10:35.471Z,57.57
2022-11-29T04:14:39.165Z,52.97
2022-11-29T04:18:34.042Z,57.40
2022-11-29T04:22:18.193Z,61.37
2022-11-29T04:26:20.384Z,52.13
2022-11-29T04:30:09.147Z,54.63
2022-11-29T04:33:56.394Z,54.53
2022-11-29T04:37:46.336Z,50.90
2022-11-29T04:41:20.426Z,52.87
2022-11-29T04:44:55.437Z,51.10
2022-11-29T04:48:43.685Z,52.10
2022-11-29T04:52:24.495Z,53.73
2022-11-29T04:55:53.626Z,54.40
2022-11-29T04:59:22.090Z,54.50
2022-11-29T05:02:55.240Z,52.83
2022-11-29T05:06:28.852Z,53.53
2022-11-29T05:10:01.704Z,61.57
2022-11-29T05:13:32.526Z,55.93
2022-11-29T05:17:01.473Z,54.63
2022-11-29T05:20:33.621Z,52.97
2022-11-29T05:24:04.358Z,54.90
2022-11-29T05:27:38.445Z,56.03
2022-11-29T05:31:30.650Z,51.03
2022-11-29T05:35:09.209Z,54.97
2022-11-29T05:39:08.656Z,54.67
2022-11-29T05:42:51.992Z,53.67
2022-11-29T05:46:23.747Z,57.13
2022-11-29T05:49:55.437Z,49.73
2022-11-29T05:53:23.507Z,50.87
2022-11-29T05:56:54.159Z,54.67
2022-11-29T06:00:19.623Z,57.03
2022-11-29T06:03:54.445Z,49.97
2022-11-29T06:07:21.771Z,54.67
2022-11-29T06:10:57.707Z,54.57
2022-11-29T06:14:42.894Z,52.83
2022-11-29T06:18:19.448Z,57.50
2022-11-29T06:21:51.876Z,56.63
2022-11-29T06:25:30.707Z,56.27
2022-11-29T06:29:02.888Z,58.93
2022-11-29T06:32:34.139Z,58.33
2022-11-29T06:36:17.093Z,54.40
2022-11-29T06:39:41.056Z,52.37
2022-11-29T06:43:02.967Z,50.40
2022-11-29T06:46:34.613Z,54.13
2022-11-29T06:50:02.662Z,52.60
2022-11-29T06:53:33.478Z,51.37
2022-11-29T06:57:02.520Z,52.40
2022-11-29T07:00:27.089Z,56.27
2022-11-29T07:04:07.871Z,51.30
2022-11-29T07:07:31.308Z,52.53
2022-11-29T07:10:55.650Z,47.83
2022-11-29T07:14:19.828Z,50.70
2022-11-29T07:17:55.675Z,50.03
2022-11-29T07:21:31.341Z,57.40
2022-11-29T07:25:03.106Z,52.50
2022-11-29T07:28:38.849Z,52.83
2022-11-29T07:32:11.730Z,56.60
2022-11-29T07:35:40.019Z,52.60
2022-11-29T07:39:14.771Z,54.33
2022-11-29T07:42:48.508Z,54.57
2022-11-29T07:46:10.701Z,58.03
2022-11-29T07:49:34.117Z,53.40
2022-11-29T07:52:57.805Z,49.80
2022-11-29T07:56:19.546Z,58.83
2022-11-29T07:59:41.235Z,54.27
2022-11-29T08:03:02.728Z,54.67
2022-11-29T08:06:27.621Z,55.90
2022-11-29T08:09:49.321Z,58.07
2022-11-29T08:13:11.010Z,56.37
2022-11-29T08:16:33.128Z,54.80
2022-11-29T08:19:54.782Z,58.93
2022-11-29T08:23:18.389Z,61.67
2022-11-29T08:26:40.271Z,62.73
2022-11-29T08:30:02.304Z,58.47
2022-11-29T08:33:24.311Z,53.33
2022-11-29T08:36:46.347Z,58.03
2022-11-29T08:40:11.088Z,54.80
2022-11-29T08:43:33.599Z,53.97
2022-11-29T08:47:12.714Z,55.83
2022-11-29T08:50:34.332Z,52.50
2022-11-29T08:53:56.231Z,54.03
2022-11-29T09:01:01.148Z,55.53
2022-11-29T09:04:23.063Z,60.40
2022-11-29T09:07:46.428Z,55.07
2022-11-29T09:11:13.612Z,55.57
2022-11-29T09:14:37.010Z,57.43
2022-11-29T09:17:58.920Z,56.57
2022-11-29T09:21:20.638Z,58.07
2022-11-29T09:24:42.698Z,59.07
2022-11-29T09:28:04.910Z,63.03
2022-11-29T09:31:29.237Z,59.67
2022-11-29T09:34:51.108Z,55.03
2022-11-29T09:38:13.566Z,61.40
2022-11-29T09:41:49.807Z,59.50
2022-11-29T09:45:18.519Z,57.90
2022-11-29T09:48:58.667Z,53.70
2022-11-29T09:52:30.676Z,56.80
2022-11-29T09:56:06.131Z,59.73
2022-11-29T09:59:33.491Z,57.90
2022-11-29T10:03:01.886Z,51.00
2022-11-29T10:06:29.194Z,54.37
2022-11-29T10:09:56.496Z,53.70
2022-11-29T10:13:23.289Z,60.03
2022-11-29T10:16:51.912Z,52.67
2022-11-29T10:20:18.095Z,58.20
2022-11-29T10:23:44.923Z,58.20
2022-11-29T10:27:15.233Z,55.97
2022-11-29T10:30:37.833Z,55.63
2022-11-29T10:34:02.494Z,56.07
2022-11-29T10:37:25.795Z,53.20
2022-11-29T10:40:52.610Z,57.77
2022-11-29T10:44:16.309Z,51.40
2022-11-29T10:47:37.995Z,57.67
2022-11-29T10:51:00.474Z,53.57
2022-11-29T10:54:31.122Z,53.47
2022-11-29T10:58:12.708Z,56.57
2022-11-29T11:01:40.170Z,57.63
2022-11-29T11:05:02.976Z,53.07
2022-11-29T11:08:26.214Z,59.13
2022-11-29T11:11:52.991Z,50.80
2022-11-29T11:15:28.833Z,53.97
2022-11-29T11:18:50.492Z,55.33
2022-11-29T11:22:23.047Z,54.37
2022-11-29T11:25:44.776Z,51.13
2022-11-29T11:29:06.305Z,56.20
2022-11-29T11:32:30.147Z,52.97
2022-11-29T11:36:10.840Z,60.00
2022-11-29T11:39:33.474Z,56.03
2022-11-29T11:42:57.570Z,59.70
2022-11-29T11:46:19.627Z,60.00
2022-11-29T11:49:50.934Z,51.10
2022-11-29T11:53:22.396Z,53.53
2022-11-29T11:56:45.143Z,52.03
2022-11-29T12:00:08.326Z,52.13
2022-11-29T12:03:49.215Z,55.73
2022-11-29T12:07:19.006Z,59.07
2022-11-29T12:10:41.508Z,58.93
2022-11-29T12:14:05.486Z,51.20
2022-11-29T12:17:34.563Z,50.43
2022-11-29T12:21:01.500Z,48.47
2022-11-29T12:24:29.167Z,51.27
2022-11-29T12:27:51.230Z,50.23
2022-11-29T12:31:28.889Z,52.33
2022-11-29T12:35:18.785Z,57.00
2022-11-29T12:39:01.140Z,48.73
2022-11-29T12:42:36.681Z,49.33
2022-11-29T12:46:06.246Z,52.90
2022-11-29T12:49:35.596Z,48.17
2022-11-29T12:53:11.718Z,51.33
2022-11-29T12:56:38.476Z,54.60
2022-11-29T13:00:11.047Z,50.33
2022-11-29T13:03:41.462Z,50.07
2022-11-29T13:07:10.274Z,55.13
2022-11-29T13:10:48.666Z,52.10
2022-11-29T13:14:41.497Z,51.27
2022-11-29T13:18:05.879Z,49.03
2022-11-29T13:21:33.495Z,53.40
2022-11-29T13:24:58.812Z,50.53
2022-11-29T13:28:26.539Z,56.33
2022-11-29T13:31:49.905Z,50.90
2022-11-29T13:35:34.134Z,45.87
2022-11-29T13:39:06.914Z,50.00
2022-11-29T13:42:38.295Z,52.53
2022-11-29T13:46:09.388Z,51.10
2022-11-29T13:49:53.822Z,56.63
2022-11-29T13:53:19.183Z,50.80
2022-11-29T13:56:47.040Z,52.67
2022-11-29T14:00:28.830Z,53.53
2022-11-29T14:04:04.743Z,49.83
2022-11-29T14:07:26.683Z,55.17
2022-11-29T14:10:51.994Z,53.23
2022-11-29T14:14:23.809Z,55.10
2022-11-29T14:17:52.723Z,50.37
2022-11-29T14:21:14.658Z,48.57
2022-11-29T14:24:41.143Z,54.47
2022-11-29T14:28:26.236Z,54.13
2022-11-29T14:31:56.147Z,52.67
2022-11-29T14:35:24.862Z,51.57
2022-11-29T14:38:53.942Z,55.87
2022-11-29T14:42:18.870Z,51.40
2022-11-29T14:45:42.154Z,55.50
2022-11-29T14:49:05.622Z,56.97
2022-11-29T14:52:33.635Z,50.97
2022-11-29T14:56:45.825Z,58.23
2022-11-29T15:00:12.625Z,57.77
2022-11-29T15:03:49.606Z,57.23
2022-11-29T15:07:19.080Z,59.30
2022-11-29T15:10:46.292Z,56.17
2022-11-29T15:14:16.960Z,53.03
2022-11-29T15:17:50.870Z,52.60
2022-11-29T15:21:25.897Z,57.77
2022-11-29T15:24:59.145Z,54.87
2022-11-29T15:28:25.110Z,51.67
2022-11-29T15:31:50.863Z,56.57
2022-11-29T15:35:18.194Z,55.87
2022-11-29T15:38:47.163Z,58.67
2022-11-29T15:42:12.615Z,59.17
2022-11-29T15:45:36.933Z,58.03
2022-11-29T15:49:17.981Z,56.27
2022-11-29T15:52:40.044Z,55.50
2022-11-29T15:56:05.803Z,63.10
2022-11-29T15:59:34.983Z,56.10
2022-11-29T16:03:01.067Z,61.33
2022-11-29T16:06:28.855Z,60.77
2022-11-29T16:09:55.126Z,57.87
2022-11-29T16:13:38.068Z,57.17
2022-11-29T16:17:03.405Z,57.10
2022-11-29T16:20:29.885Z,63.30
2022-11-29T16:23:52.022Z,62.70
2022-11-29T16:27:14.961Z,61.77
2022-11-29T16:30:43.175Z,60.57
2022-11-29T16:34:09.125Z,67.23
2022-11-29T16:37:37.557Z,63.13
2022-11-29T16:41:05.156Z,65.17
2022-11-29T16:45:14.551Z,65.47
2022-11-29T16:48:38.698Z,66.40
2022-11-29T16:52:00.482Z,64.77
2022-11-29T16:55:22.304Z,64.03
2022-11-29T16:59:16.954Z,68.80
2022-11-29T17:02:30.828Z,67.83
2022-11-29T17:05:54.091Z,69.60
2022-11-29T17:09:23.197Z,70.17
2022-11-29T17:12:48.223Z,66.83
2022-11-29T17:16:14.556Z,71.23
2022-11-29T17:19:36.598Z,72.30
2022-11-29T17:23:02.489Z,73.83
2022-11-29T17:26:24.979Z,73.87
2022-11-29T17:29:46.762Z,73.07
2022-11-29T17:33:08.222Z,73.50
2022-11-29T17:36:30.610Z,71.60
2022-11-29T17:39:53.928Z,79.47
2022-11-29T17:43:15.933Z,71.93
2022-11-29T17:46:37.950Z,71.67
2022-11-29T17:49:59.944Z,74.83
2022-11-29T17:53:21.583Z,69.20
2022-11-29T17:56:44.714Z,77.90
2022-11-29T18:00:08.873Z,74.67
2022-11-29T18:03:30.064Z,75.87
2022-11-29T18:06:51.946Z,77.30
2022-11-29T18:10:13.916Z,79.37
2022-11-29T18:13:37.355Z,80.57
2022-11-29T18:16:59.172Z,83.63
2022-11-29T18:20:20.762Z,74.10
2022-11-29T18:23:43.877Z,78.97
2022-11-29T18:27:05.596Z,86.70
2022-11-29T18:30:29.065Z,84.67
2022-11-29T18:33:54.078Z,82.50
2022-11-29T18:37:27.560Z,76.77
2022-11-29T18:40:59.299Z,84.93
2022-11-29T18:44:24.259Z,80.67
2022-11-29T18:47:47.586Z,79.23
2022-11-29T18:51:11.919Z,79.50
2022-11-29T18:54:33.794Z,79.00
2022-11-29T18:57:55.763Z,84.43
2022-11-29T19:01:19.764Z,82.70
2022-11-29T19:04:43.031Z,82.80
2022-11-29T19:08:04.647Z,83.90
2022-11-29T19:11:28.119Z,81.70
2022-11-29T19:14:50.384Z,83.30
2022-11-29T19:18:12.846Z,76.63
2022-11-29T19:21:36.390Z,81.43
2022-11-29T19:24:58.304Z,82.87
2022-11-29T19:28:20.285Z,82.30
2022-11-29T19:31:42.613Z,84.50
2022-11-29T19:35:05.034Z,83.23
2022-11-29T19:38:28.122Z,81.87
2022-11-29T19:41:49.705Z,82.53
2022-11-29T19:45:18.892Z,84.43
2022-11-29T19:48:40.903Z,87.13
2022-11-29T19:52:02.935Z,84.47
2022-11-29T19:55:26.882Z,80.43
2022-11-29T19:58:49.008Z,85.10
2022-11-29T20:02:11.814Z,84.77
2022-11-29T20:05:33.658Z,84.50
2022-11-29T20:08:55.978Z,89.73
2022-11-29T20:12:19.146Z,85.03
2022-11-29T20:15:41.183Z,89.30
2022-11-29T20:19:03.353Z,87.53
2022-11-29T20:22:25.042Z,84.90
2022-11-29T20:25:49.976Z,84.87
2022-11-29T20:29:14.227Z,88.43
2022-11-29T20:32:36.556Z,85.03
2022-11-29T20:36:13.566Z,87.47
2022-11-29T20:39:44.692Z,84.03
2022-11-29T20:43:14.340Z,81.60
2022-11-29T20:46:39.929Z,86.27
2022-11-29T20:50:01.872Z,91.87
2022-11-29T20:53:33.153Z,85.63
2022-11-29T20:56:54.982Z,90.03
2022-11-29T21:00:18.320Z,86.13
2022-11-29T21:03:41.612Z,83.63
2022-11-29T21:07:03.446Z,86.53
2022-11-29T21:10:25.238Z,85.07
2022-11-29T21:13:48.157Z,91.33
2022-11-29T21:17:10.660Z,82.73
2022-11-29T21:20:34.530Z,88.60
2022-11-29T21:24:04.732Z,83.73
2022-11-29T21:27:31.550Z,85.40
2022-11-29T21:30:54.001Z,82.17
2022-11-29T21:34:15.993Z,81.57
2022-11-29T21:37:39.263Z,80.27
2022-11-29T21:41:00.994Z,79.60
2022-11-29T21:44:22.528Z,85.93
2022-11-29T21:47:45.118Z,85.70
2022-11-29T21:51:07.946Z,87.97
2022-11-29T21:54:31.402Z,79.80
2022-11-29T21:57:53.264Z,85.67
2022-11-29T22:01:17.383Z,86.47
2022-11-29T22:04:38.946Z,81.90
2022-11-29T22:08:00.933Z,83.03
2022-11-29T22:11:35.519Z,80.13
2022-11-29T22:14:57.423Z,87.57
2022-11-29T22:18:18.954Z,85.93
2022-11-29T22:21:41.323Z,81.17
2022-11-29T22:25:03.050Z,77.73
2022-11-29T22:28:26.482Z,84.27
2022-11-29T22:31:50.262Z,81.57
2022-11-29T22:35:11.805Z,83.07
2022-11-29T22:38:33.368Z,85.63
2022-11-29T22:41:55.431Z,85.80
2022-11-29T22:45:18.523Z,81.57
2022-11-29T22:48:41.834Z,85.03
2022-11-29T22:52:03.444Z,83.43
2022-11-29T22:55:24.857Z,81.83
2022-11-29T22:58:46.874Z,81.67
2022-11-29T23:02:10.080Z,83.33
2022-11-29T23:05:34.044Z,85.50
2022-11-29T23:08:57.807Z,85.80
2022-11-29T23:12:20.798Z,81.47
2022-11-29T23:15:42.839Z,81.87
2022-11-29T23:19:06.371Z,82.37
2022-11-29T23:22:27.987Z,87.67
2022-11-29T23:25:50.698Z,77.30
2022-11-29T23:29:15.513Z,79.63
2022-11-29T23:32:37.286Z,82.30
2022-11-29T23:36:06.432Z,87.10
2022-11-29T23:39:27.842Z,85.27
2022-11-29T23:42:52.035Z,84.23
2022-11-29T23:46:16.047Z,85.37
2022-11-29T23:49:39.820Z,83.73
2022-11-29T23:53:03.220Z,83.40
2022-11-29T23:56:24.804Z,86.80
2022-11-29T23:59:46.555Z,81.77
